createdAt,value
2023-03-01T00:01:45.455Z,41.30
2023-03-01T00:04:17.203Z,37.80
2023-03-01T00:06:48.999Z,37.70
2023-03-01T00:09:20.912Z,36.40
2023-03-01T00:11:52.535Z,37.90
2023-03-01T00:14:25.196Z,37.30
2023-03-01T00:16:56.993Z,38.20
2023-03-01T00:19:29.230Z,37.40
2023-03-01T00:22:00.979Z,36.60
2023-03-01T00:24:32.884Z,35.30
2023-03-01T00:27:04.607Z,34.90
2023-03-01T00:29:36.665Z,34.90
2023-03-01T00:32:09.933Z,37.80
2023-03-01T00:34:41.577Z,37.50
2023-03-01T00:37:13.896Z,37.90
2023-03-01T00:39:45.736Z,38.20
2023-03-01T00:42:18.688Z,38.30
2023-03-01T00:44:50.684Z,37.10
2023-03-01T00:47:23.315Z,38.20
2023-03-01T00:49:55.416Z,39.10
2023-03-01T00:52:27.608Z,40.00
2023-03-01T00:55:00.440Z,38.80
2023-03-01T00:57:32.370Z,36.20
2023-03-01T01:00:05.751Z,39.60
2023-03-01T01:02:38.505Z,37.70
2023-03-01T01:05:12.064Z,40.20
2023-03-01T01:07:43.888Z,38.90
2023-03-01T01:10:18.372Z,38.40
2023-03-01T01:12:50.965Z,38.50
2023-03-01T01:15:23.064Z,36.50
2023-03-01T01:17:54.835Z,36.40
2023-03-01T01:20:26.946Z,34.70
2023-03-01T01:22:58.897Z,35.50
2023-03-01T01:25:31.508Z,38.20
2023-03-01T01:28:03.831Z,38.80
2023-03-01T01:30:36.644Z,38.40
2023-03-01T01:33:09.212Z,35.20
2023-03-01T01:35:41.190Z,36.20
2023-03-01T01:38:13.255Z,35.50
2023-03-01T01:40:50.225Z,34.50
2023-03-01T01:43:26.322Z,33.70
2023-03-01T01:46:02.154Z,33.30
2023-03-01T01:48:43.283Z,30.50
2023-03-01T01:51:20.929Z,31.40
2023-03-01T01:53:58.685Z,29.20
2023-03-01T01:56:32.245Z,30.40
2023-03-01T01:59:06.458Z,29.80
2023-03-01T02:01:38.036Z,28.50
2023-03-01T02:04:10.203Z,28.60
2023-03-01T02:06:46.924Z,27.30
2023-03-01T02:09:21.551Z,27.40
2023-03-01T02:11:54.803Z,27.00
2023-03-01T02:14:26.300Z,28.30
2023-03-01T02:16:58.310Z,26.00
2023-03-01T02:19:44.336Z,27.50
2023-03-01T02:22:23.669Z,28.00
2023-03-01T02:25:06.148Z,27.30
2023-03-01T02:27:45.350Z,27.50
2023-03-01T02:30:18.131Z,26.40
2023-03-01T02:32:51.069Z,28.50
2023-03-01T02:35:24.008Z,27.50
2023-03-01T02:37:58.612Z,29.40
2023-03-01T02:40:33.714Z,27.70
2023-03-01T02:43:11.639Z,28.80
2023-03-01T02:45:50.890Z,28.00
2023-03-01T02:48:26.270Z,30.10
2023-03-01T02:51:11.128Z,29.50
2023-03-01T02:53:54.315Z,28.60
2023-03-01T02:56:26.839Z,27.80
2023-03-01T02:59:02.033Z,27.60
2023-03-01T03:01:39.007Z,27.80
2023-03-01T03:04:13.121Z,26.60
2023-03-01T03:06:46.711Z,26.50
2023-03-01T03:09:19.625Z,27.20
2023-03-01T03:11:51.777Z,25.40
2023-03-01T03:14:25.207Z,24.40
2023-03-01T03:16:57.476Z,25.60
2023-03-01T03:19:31.652Z,26.30
2023-03-01T03:22:03.763Z,26.10
2023-03-01T03:24:40.189Z,27.70
2023-03-01T03:27:12.662Z,27.40
2023-03-01T03:29:44.807Z,27.70
2023-03-01T03:32:18.218Z,27.00
2023-03-01T03:34:50.799Z,27.20
2023-03-01T03:37:40.372Z,28.10
2023-03-01T03:40:16.672Z,26.00
2023-03-01T03:42:49.429Z,27.60
2023-03-01T03:45:22.206Z,26.50
2023-03-01T03:47:55.362Z,26.20
2023-03-01T03:50:27.082Z,24.40
2023-03-01T03:52:58.859Z,26.20
2023-03-01T03:55:31.990Z,27.40
2023-03-01T03:58:08.183Z,25.10
2023-03-01T04:00:41.898Z,26.60
2023-03-01T04:03:16.505Z,29.10
2023-03-01T04:05:51.026Z,27.40
2023-03-01T04:08:24.738Z,28.10
2023-03-01T04:11:22.895Z,29.30
2023-03-01T04:13:55.826Z,31.60
2023-03-01T04:16:28.083Z,29.70
2023-03-01T04:19:00.990Z,30.10
2023-03-01T04:21:32.633Z,28.70
2023-03-01T04:24:05.045Z,27.50
2023-03-01T04:26:38.081Z,28.00
2023-03-01T04:29:09.933Z,29.00
2023-03-01T04:31:56.784Z,29.10
2023-03-01T04:34:44.261Z,29.00
2023-03-01T04:37:17.332Z,29.30
2023-03-01T04:39:50.086Z,29.40
2023-03-01T04:42:22.902Z,28.30
2023-03-01T04:44:54.685Z,29.50
2023-03-01T04:47:26.475Z,30.80
2023-03-01T04:49:58.430Z,29.70
2023-03-01T04:52:30.628Z,29.70
2023-03-01T04:55:02.950Z,30.90
2023-03-01T04:57:35.328Z,31.90
2023-03-01T05:00:21.315Z,30.90
2023-03-01T05:02:56.079Z,29.40
2023-03-01T05:08:01.062Z,27.70
2023-03-01T05:10:36.201Z,29.40
2023-03-01T05:13:08.852Z,29.70
2023-03-01T05:15:40.376Z,29.50
2023-03-01T05:18:12.670Z,30.10
2023-03-01T05:20:46.018Z,34.80
2023-03-01T05:23:17.937Z,34.40
2023-03-01T05:25:50.556Z,32.20
2023-03-01T05:28:24.444Z,33.20
2023-03-01T05:30:57.291Z,33.10
2023-03-01T05:33:30.115Z,31.60
2023-03-01T05:36:04.268Z,31.60
2023-03-01T05:38:36.764Z,31.60
2023-03-01T05:41:16.435Z,31.90
2023-03-01T05:43:48.097Z,30.10
2023-03-01T05:46:20.351Z,31.10
2023-03-01T05:48:52.191Z,30.80
2023-03-01T05:51:24.207Z,28.90
2023-03-01T05:53:56.642Z,27.60
2023-03-01T05:56:28.534Z,26.10
2023-03-01T05:59:00.444Z,24.30
2023-03-01T06:01:33.537Z,23.60
2023-03-01T06:04:05.415Z,22.70
2023-03-01T06:06:40.046Z,23.40
2023-03-01T06:09:11.738Z,23.10
2023-03-01T06:11:43.207Z,21.80
2023-03-01T06:14:15.963Z,21.90
2023-03-01T06:16:47.961Z,21.40
2023-03-01T06:19:19.439Z,22.00
2023-03-01T06:21:51.611Z,21.00
2023-03-01T06:24:25.967Z,21.00
2023-03-01T06:26:58.808Z,21.00
2023-03-01T06:29:31.576Z,20.10
2023-03-01T06:32:03.968Z,20.80
2023-03-01T06:34:36.815Z,20.00
2023-03-01T06:37:09.102Z,20.00
2023-03-01T06:39:41.672Z,19.60
2023-03-01T06:42:13.880Z,18.30
2023-03-01T06:44:47.078Z,20.30
2023-03-01T06:47:19.503Z,19.70
2023-03-01T06:49:51.296Z,20.70
2023-03-01T06:52:23.297Z,19.90
2023-03-01T06:54:55.255Z,19.40
2023-03-01T06:57:27.377Z,19.10
2023-03-01T07:00:02.492Z,19.00
2023-03-01T07:02:35.507Z,18.30
2023-03-01T07:05:10.818Z,19.30
2023-03-01T07:07:42.498Z,18.60
2023-03-01T07:10:15.917Z,19.40
2023-03-01T07:12:48.041Z,21.20
2023-03-01T07:15:21.861Z,22.40
2023-03-01T07:17:56.434Z,20.60
2023-03-01T07:20:29.317Z,18.80
2023-03-01T07:23:01.895Z,18.20
2023-03-01T07:25:35.084Z,18.10
2023-03-01T07:28:08.269Z,18.60
2023-03-01T07:30:41.694Z,20.00
2023-03-01T07:33:14.473Z,25.30
2023-03-01T07:35:46.856Z,20.20
2023-03-01T07:38:19.342Z,19.80
2023-03-01T07:40:52.321Z,16.90
2023-03-01T07:43:25.392Z,19.20
2023-03-01T07:46:00.746Z,18.40
2023-03-01T07:48:34.436Z,17.20
2023-03-01T07:51:09.478Z,19.40
2023-03-01T07:53:42.749Z,18.00
2023-03-01T07:56:19.067Z,19.50
2023-03-01T07:58:51.636Z,17.20
2023-03-01T08:01:25.387Z,18.20
2023-03-01T08:03:58.200Z,18.10
2023-03-01T08:06:31.265Z,17.40
2023-03-01T08:09:04.352Z,17.20
2023-03-01T08:11:39.297Z,17.90
2023-03-01T08:14:13.390Z,16.80
2023-03-01T08:16:47.581Z,16.50
2023-03-01T08:19:22.184Z,16.00
2023-03-01T08:21:56.270Z,16.50
2023-03-01T08:24:29.142Z,16.70
2023-03-01T08:27:03.944Z,15.40
2023-03-01T08:32:08.149Z,13.90
2023-03-01T08:34:42.484Z,14.40
2023-03-01T08:37:15.471Z,13.40
2023-03-01T08:39:48.114Z,14.20
2023-03-01T08:42:20.827Z,13.00
2023-03-01T08:44:53.793Z,12.70
2023-03-01T08:47:26.350Z,11.30
2023-03-01T08:49:59.391Z,12.20
2023-03-01T08:52:33.391Z,10.90
2023-03-01T08:55:08.425Z,11.90
2023-03-01T08:57:41.874Z,13.40
2023-03-01T09:00:19.062Z,12.30
2023-03-01T09:02:53.476Z,10.10
2023-03-01T09:05:26.345Z,12.00
2023-03-01T09:08:02.033Z,11.70
2023-03-01T09:10:34.052Z,11.70
2023-03-01T09:13:06.713Z,10.90
2023-03-01T09:15:39.628Z,10.60
2023-03-01T09:18:13.072Z,11.40
2023-03-01T09:20:45.013Z,11.20
2023-03-01T09:23:17.196Z,11.20
2023-03-01T09:25:51.217Z,10.70
2023-03-01T09:28:29.959Z,11.60
2023-03-01T09:31:05.680Z,11.10
2023-03-01T09:33:40.114Z,10.40
2023-03-01T09:36:17.785Z,11.10
2023-03-01T09:38:51.231Z,9.50
2023-03-01T09:41:39.795Z,9.60
2023-03-01T09:44:19.158Z,10.50
2023-03-01T09:46:53.474Z,9.40
2023-03-01T09:49:29.228Z,8.40
2023-03-01T09:52:16.351Z,9.50
2023-03-01T09:54:49.726Z,9.00
2023-03-01T09:57:30.270Z,10.50
2023-03-01T10:00:21.191Z,8.50
2023-03-01T10:03:01.724Z,9.10
2023-03-01T10:05:44.270Z,9.40
2023-03-01T10:08:43.141Z,9.90
2023-03-01T10:11:30.030Z,9.90
2023-03-01T10:14:06.109Z,7.20
2023-03-01T10:16:48.360Z,8.80
2023-03-01T10:19:27.799Z,9.40
2023-03-01T10:22:06.564Z,10.90
2023-03-01T10:24:41.397Z,8.70
2023-03-01T10:29:53.716Z,8.30
2023-03-01T10:32:26.316Z,7.20
2023-03-01T10:34:58.678Z,8.30
2023-03-01T10:37:31.397Z,7.30
2023-03-01T10:40:09.753Z,7.00
2023-03-01T10:42:50.841Z,6.60
2023-03-01T10:45:35.477Z,6.70
2023-03-01T10:48:19.715Z,6.00
2023-03-01T10:51:08.450Z,6.20
2023-03-01T10:53:44.360Z,5.90
2023-03-01T10:56:18.671Z,6.30
2023-03-01T10:59:03.230Z,6.60
2023-03-01T11:01:38.622Z,6.50
2023-03-01T11:04:18.776Z,5.40
2023-03-01T11:07:03.638Z,6.30
2023-03-01T11:09:40.188Z,5.80
2023-03-01T11:12:19.318Z,6.20
2023-03-01T11:14:58.449Z,5.40
2023-03-01T11:17:47.929Z,6.90
2023-03-01T11:20:32.751Z,5.40
2023-03-01T11:23:10.996Z,6.00
2023-03-01T11:25:46.603Z,6.00
2023-03-01T11:28:23.323Z,6.30
2023-03-01T11:31:08.801Z,5.70
2023-03-01T11:33:47.628Z,4.90
2023-03-01T11:36:27.487Z,5.30
2023-03-01T11:39:05.143Z,5.50
2023-03-01T11:41:43.000Z,5.30
2023-03-01T11:44:22.746Z,5.10
2023-03-01T11:47:18.668Z,5.00
2023-03-01T11:50:12.607Z,5.80
2023-03-01T11:53:00.505Z,5.40
2023-03-01T11:55:54.997Z,5.80
2023-03-01T11:58:47.072Z,5.10
2023-03-01T12:01:42.772Z,5.40
2023-03-01T12:04:37.990Z,5.30
2023-03-01T12:07:20.292Z,5.40
2023-03-01T12:10:09.558Z,6.00
2023-03-01T12:12:56.352Z,5.10
2023-03-01T12:15:51.065Z,6.20
2023-03-01T12:18:55.807Z,6.60
2023-03-01T12:21:43.307Z,6.10
2023-03-01T12:24:42.509Z,5.50
2023-03-01T12:27:41.719Z,5.40
2023-03-01T12:30:27.473Z,5.30
2023-03-01T12:33:15.307Z,5.50
2023-03-01T12:36:13.197Z,5.40
2023-03-01T12:38:50.360Z,5.50
2023-03-01T12:41:51.540Z,5.90
2023-03-01T12:44:43.903Z,6.70
2023-03-01T12:47:32.031Z,6.50
2023-03-01T12:50:14.340Z,7.10
2023-03-01T12:52:50.827Z,7.00
2023-03-01T12:55:33.085Z,9.40
2023-03-01T12:58:22.838Z,8.20
2023-03-01T13:01:05.486Z,7.40
2023-03-01T13:03:49.011Z,7.60
2023-03-01T13:06:41.335Z,8.40
2023-03-01T13:09:27.553Z,8.70
2023-03-01T13:12:00.750Z,6.90
2023-03-01T13:14:50.497Z,7.20
2023-03-01T13:17:48.265Z,7.60
2023-03-01T13:20:23.809Z,6.90
2023-03-01T13:23:10.834Z,7.90
2023-03-01T13:26:14.117Z,7.10
2023-03-01T13:29:02.350Z,6.70
2023-03-01T13:32:06.031Z,7.10
2023-03-01T13:35:05.008Z,7.40
2023-03-01T13:37:40.604Z,6.90
2023-03-01T13:40:49.546Z,7.40
2023-03-01T13:43:38.519Z,8.00
2023-03-01T13:46:19.814Z,6.70
2023-03-01T13:48:55.078Z,7.30
2023-03-01T13:51:32.194Z,6.90
2023-03-01T13:54:04.462Z,7.50
2023-03-01T13:56:41.437Z,7.30
2023-03-01T13:59:19.556Z,7.10
2023-03-01T14:01:57.197Z,8.00
2023-03-01T14:04:32.752Z,7.40
2023-03-01T14:07:23.301Z,7.50
2023-03-01T14:09:58.134Z,7.40
2023-03-01T14:15:12.328Z,6.30
2023-03-01T14:18:02.495Z,6.90
2023-03-01T14:20:40.758Z,7.40
2023-03-01T14:23:18.244Z,7.50
2023-03-01T14:25:53.937Z,6.10
2023-03-01T14:28:30.160Z,6.70
2023-03-01T14:31:04.005Z,6.60
2023-03-01T14:33:37.833Z,7.20
2023-03-01T14:36:12.844Z,8.50
2023-03-01T14:38:48.134Z,6.50
2023-03-01T14:41:22.855Z,6.60
2023-03-01T14:43:57.637Z,6.70
2023-03-01T14:49:07.470Z,7.20
2023-03-01T14:51:43.997Z,7.80
2023-03-01T14:54:27.441Z,7.00
2023-03-01T14:57:04.358Z,7.20
2023-03-01T14:59:38.641Z,7.50
2023-03-01T15:02:18.437Z,7.70
2023-03-01T15:04:54.489Z,7.80
2023-03-01T15:07:29.436Z,9.40
2023-03-01T15:10:02.448Z,9.00
2023-03-01T15:12:43.867Z,9.90
2023-03-01T15:15:39.321Z,8.90
2023-03-01T15:18:19.790Z,8.10
2023-03-01T15:20:52.777Z,8.60
2023-03-01T15:23:27.688Z,9.00
2023-03-01T15:26:01.875Z,9.60
2023-03-01T15:28:36.298Z,8.50
2023-03-01T15:31:21.081Z,7.60
2023-03-01T15:33:53.358Z,8.90
2023-03-01T15:36:43.505Z,8.90
2023-03-01T15:39:39.805Z,9.50
2023-03-01T15:42:14.440Z,9.70
2023-03-01T15:44:47.609Z,9.30
2023-03-01T15:47:32.369Z,9.10
2023-03-01T15:50:05.473Z,10.80
2023-03-01T15:52:44.278Z,11.60
2023-03-01T15:55:22.180Z,11.90
2023-03-01T15:58:01.839Z,11.50
2023-03-01T16:00:34.535Z,13.70
2023-03-01T16:03:06.567Z,14.30
2023-03-01T16:05:40.306Z,14.80
2023-03-01T16:08:12.971Z,15.40
2023-03-01T16:10:46.161Z,15.00
2023-03-01T16:13:18.699Z,18.90
2023-03-01T16:15:51.211Z,55.30
2023-03-01T16:18:25.542Z,62.30
2023-03-01T16:20:57.940Z,58.40
2023-03-01T16:23:30.070Z,47.30
2023-03-01T16:26:06.094Z,35.50
2023-03-01T16:28:39.680Z,40.00
2023-03-01T16:31:13.311Z,63.60
2023-03-01T16:33:51.223Z,58.30
2023-03-01T16:36:26.022Z,48.10
2023-03-01T16:41:33.112Z,32.20
2023-03-01T16:44:06.263Z,29.70
2023-03-01T16:46:39.797Z,27.20
2023-03-01T16:49:13.080Z,28.00
2023-03-01T16:51:46.445Z,29.40
2023-03-01T16:54:19.950Z,34.70
2023-03-01T16:56:53.211Z,32.20
2023-03-01T16:59:27.203Z,31.20
2023-03-01T17:01:59.309Z,32.90
2023-03-01T17:04:31.240Z,34.30
2023-03-01T17:07:04.260Z,35.60
2023-03-01T17:09:40.697Z,36.40
2023-03-01T17:12:14.895Z,37.80
2023-03-01T17:14:50.072Z,44.00
2023-03-01T17:17:27.305Z,44.70
2023-03-01T17:20:02.333Z,44.40
2023-03-01T17:22:35.850Z,45.80
2023-03-01T17:25:11.442Z,46.90
2023-03-01T17:27:44.571Z,49.40
2023-03-01T17:30:20.560Z,54.00
2023-03-01T17:32:57.826Z,60.80
2023-03-01T17:35:37.464Z,63.40
2023-03-01T17:38:11.125Z,58.60
2023-03-01T17:40:47.223Z,59.10
2023-03-01T17:43:22.094Z,53.90
2023-03-01T17:48:29.178Z,49.20
2023-03-01T17:51:01.627Z,48.60
2023-03-01T17:53:35.143Z,56.40
2023-03-01T17:56:10.472Z,55.80
2023-03-01T17:58:43.995Z,50.50
2023-03-01T18:01:20.909Z,49.20
2023-03-01T18:03:56.126Z,47.90
2023-03-01T18:06:30.814Z,46.60
2023-03-01T18:11:41.370Z,45.40
2023-03-01T18:14:17.611Z,44.60
2023-03-01T18:16:51.517Z,44.80
2023-03-01T18:19:25.632Z,47.30
2023-03-01T18:22:07.649Z,50.00
2023-03-01T18:24:43.904Z,58.00
2023-03-01T18:27:18.018Z,59.00
2023-03-01T18:29:52.819Z,59.30
2023-03-01T18:35:00.766Z,55.80
2023-03-01T18:37:35.364Z,62.10
2023-03-01T18:40:13.170Z,64.00
2023-03-01T18:42:47.365Z,64.60
2023-03-01T18:45:23.201Z,73.80
2023-03-01T18:48:00.129Z,75.80
2023-03-01T18:50:32.835Z,71.70
2023-03-01T18:53:07.343Z,72.20
2023-03-01T18:55:42.201Z,71.20
2023-03-01T18:58:16.174Z,73.90
2023-03-01T19:00:49.669Z,78.10
2023-03-01T19:03:23.693Z,80.30
2023-03-01T19:05:57.941Z,79.80
2023-03-01T19:08:39.266Z,79.30
2023-03-01T19:11:14.532Z,73.50
2023-03-01T19:13:57.287Z,69.10
2023-03-01T19:16:33.788Z,65.30
2023-03-01T19:19:10.531Z,64.90
2023-03-01T19:21:56.035Z,60.60
2023-03-01T19:24:38.107Z,61.20
2023-03-01T19:29:47.095Z,55.40
2023-03-01T19:34:58.655Z,61.40
2023-03-01T19:37:35.865Z,69.10
2023-03-01T19:40:11.883Z,67.50
2023-03-01T19:42:47.481Z,62.10
2023-03-01T19:45:31.840Z,58.80
2023-03-01T19:48:08.698Z,55.80
2023-03-01T19:50:46.105Z,50.00
2023-03-01T19:53:23.736Z,50.30
2023-03-01T19:56:08.161Z,48.00
2023-03-01T19:58:43.111Z,47.30
2023-03-01T20:01:24.761Z,46.70
2023-03-01T20:03:57.750Z,48.60
2023-03-01T20:06:31.909Z,49.10
2023-03-01T20:09:19.301Z,51.00
2023-03-01T20:11:54.215Z,51.30
2023-03-01T20:14:28.101Z,50.80
2023-03-01T20:17:10.736Z,49.20
2023-03-01T20:19:46.271Z,48.50
2023-03-01T20:22:19.669Z,53.70
2023-03-01T20:24:53.165Z,60.90
2023-03-01T20:27:27.482Z,57.60
2023-03-01T20:30:01.955Z,55.80
2023-03-01T20:32:40.392Z,54.30
2023-03-01T20:35:17.219Z,55.40
2023-03-01T20:37:50.215Z,57.40
2023-03-01T20:40:29.412Z,53.20
2023-03-01T20:43:04.161Z,74.30
2023-03-01T20:45:40.430Z,63.50
2023-03-01T20:48:13.376Z,58.70
2023-03-01T20:50:48.433Z,56.60
2023-03-01T20:53:21.793Z,57.30
2023-03-01T20:55:54.435Z,55.50
2023-03-01T20:58:27.771Z,55.50
2023-03-01T21:01:01.277Z,58.80
2023-03-01T21:03:35.451Z,56.80
2023-03-01T21:06:10.104Z,54.20
2023-03-01T21:08:44.600Z,57.50
2023-03-01T21:11:25.713Z,58.10
2023-03-01T21:13:58.595Z,56.20
2023-03-01T21:16:31.055Z,56.30
2023-03-01T21:19:05.999Z,57.80
2023-03-01T21:21:37.810Z,61.10
2023-03-01T21:24:12.098Z,80.30
2023-03-01T21:26:46.474Z,65.10
2023-03-01T21:29:18.750Z,60.50
2023-03-01T21:31:51.428Z,57.50
2023-03-01T21:34:25.178Z,53.80
2023-03-01T21:36:59.393Z,56.20
2023-03-01T21:39:31.760Z,63.10
2023-03-01T21:42:06.839Z,69.30
2023-03-01T21:44:38.985Z,69.20
2023-03-01T21:47:11.937Z,72.10
2023-03-01T21:49:44.351Z,64.30
2023-03-01T21:52:17.292Z,61.00
2023-03-01T21:54:51.977Z,60.90
2023-03-01T21:57:24.644Z,53.80
2023-03-01T21:59:56.547Z,50.30
2023-03-01T22:02:30.137Z,51.40
2023-03-01T22:05:02.344Z,53.40
2023-03-01T22:07:35.435Z,51.70
2023-03-01T22:10:08.678Z,52.30
2023-03-01T22:12:41.806Z,54.10
2023-03-01T22:15:15.154Z,52.80
2023-03-01T22:17:47.374Z,48.80
2023-03-01T22:20:21.071Z,49.10
2023-03-01T22:22:52.986Z,60.10
2023-03-01T22:25:25.366Z,52.00
2023-03-01T22:27:57.391Z,50.80
2023-03-01T22:30:29.401Z,50.50
2023-03-01T22:33:01.389Z,48.00
2023-03-01T22:35:33.051Z,51.60
2023-03-01T22:38:04.824Z,66.80
2023-03-01T22:40:39.045Z,51.40
2023-03-01T22:43:11.307Z,48.40
2023-03-01T22:45:43.974Z,49.20
2023-03-01T22:48:15.627Z,46.70
2023-03-01T22:50:48.086Z,47.90
2023-03-01T22:53:20.150Z,50.20
2023-03-01T22:55:51.787Z,46.20
2023-03-01T22:58:23.668Z,52.80
2023-03-01T23:00:55.718Z,47.40
2023-03-01T23:03:27.659Z,50.00
2023-03-01T23:05:59.197Z,58.80
2023-03-01T23:08:31.012Z,53.10
2023-03-01T23:11:03.158Z,51.80
2023-03-01T23:13:35.031Z,55.50
2023-03-01T23:16:07.681Z,52.50
2023-03-01T23:18:41.184Z,50.90
2023-03-01T23:21:15.074Z,49.10
2023-03-01T23:23:47.709Z,50.80
2023-03-01T23:26:22.551Z,50.00
2023-03-01T23:31:25.891Z,44.10
2023-03-01T23:33:57.496Z,45.30
2023-03-01T23:36:32.570Z,47.50
2023-03-01T23:39:07.888Z,45.60
2023-03-01T23:41:40.972Z,49.50
2023-03-01T23:44:18.441Z,47.30
2023-03-01T23:46:51.115Z,45.80
2023-03-01T23:49:25.098Z,52.40
2023-03-01T23:51:56.938Z,48.90
2023-03-01T23:54:29.342Z,46.30
2023-03-01T23:57:02.475Z,45.30
2023-03-01T23:59:34.070Z,46.10
